sensor_id;sensor_type;location;lat;lon;timestamp;temperature;humidity
20915;DHT22;10617;52.032;5.298;2022-09-09T00:00:13;16.80;99.90
20915;DHT22;10617;52.032;5.298;2022-09-09T00:08:38;16.70;99.90
20915;DHT22;10617;52.032;5.298;2022-09-09T00:16:55;16.70;99.90
20915;DHT22;10617;52.032;5.298;2022-09-09T00:21:03;16.70;99.90
20915;DHT22;10617;52.032;5.298;2022-09-09T00:25:12;16.70;99.90
20915;DHT22;10617;52.032;5.298;2022-09-09T00:29:21;16.70;99.90
20915;DHT22;10617;52.032;5.298;2022-09-09T00:33:27;16.60;99.90
20915;DHT22;10617;52.032;5.298;2022-09-09T00:37:28;16.60;99.90
20915;DHT22;10617;52.032;5.298;2022-09-09T00:46:05;16.50;99.90
20915;DHT22;10617;52.032;5.298;2022-09-09T00:50:24;16.40;99.90
20915;DHT22;10617;52.032;5.298;2022-09-09T00:58:55;16.30;99.90
20915;DHT22;10617;52.032;5.298;2022-09-09T01:07:03;16.20;99.90
20915;DHT22;10617;52.032;5.298;2022-09-09T01:11:10;16.20;99.90
20915;DHT22;10617;52.032;5.298;2022-09-09T01:15:21;16.20;99.90
20915;DHT22;10617;52.032;5.298;2022-09-09T01:19:33;16.20;99.90
20915;DHT22;10617;52.032;5.298;2022-09-09T01:27:43;16.10;99.90
20915;DHT22;10617;52.032;5.298;2022-09-09T01:35:57;16.10;99.90
20915;DHT22;10617;52.032;5.298;2022-09-09T01:40:02;16.10;99.90
20915;DHT22;10617;52.032;5.298;2022-09-09T01:44:03;16.10;99.90
20915;DHT22;10617;52.032;5.298;2022-09-09T01:48:07;16.10;99.90
20915;DHT22;10617;52.032;5.298;2022-09-09T01:52:09;16.10;99.90
20915;DHT22;10617;52.032;5.298;2022-09-09T01:56:13;16.10;99.90
20915;DHT22;10617;52.032;5.298;2022-09-09T02:00:18;16.10;99.90
20915;DHT22;10617;52.032;5.298;2022-09-09T02:04:24;16.10;99.90
20915;DHT22;10617;52.032;5.298;2022-09-09T02:08:32;16.10;99.90
20915;DHT22;10617;52.032;5.298;2022-09-09T02:12:35;16.10;99.90
20915;DHT22;10617;52.032;5.298;2022-09-09T02:16:39;16.00;99.90
20915;DHT22;10617;52.032;5.298;2022-09-09T02:20:42;16.00;99.90
20915;DHT22;10617;52.032;5.298;2022-09-09T02:24:44;16.00;99.90
20915;DHT22;10617;52.032;5.298;2022-09-09T02:28:48;15.90;99.90
20915;DHT22;10617;52.032;5.298;2022-09-09T02:32:50;15.90;99.90
20915;DHT22;10617;52.032;5.298;2022-09-09T02:36:53;15.90;99.90
20915;DHT22;10617;52.032;5.298;2022-09-09T02:40:55;15.90;99.90
20915;DHT22;10617;52.032;5.298;2022-09-09T02:44:57;15.80;99.90
20915;DHT22;10617;52.032;5.298;2022-09-09T02:49:03;15.80;99.90
20915;DHT22;10617;52.032;5.298;2022-09-09T02:53:17;15.80;99.90
20915;DHT22;10617;52.032;5.298;2022-09-09T02:57:23;15.70;99.90
20915;DHT22;10617;52.032;5.298;2022-09-09T03:01:26;15.70;99.90
20915;DHT22;10617;52.032;5.298;2022-09-09T03:05:28;15.70;99.90
20915;DHT22;10617;52.032;5.298;2022-09-09T03:09:30;15.70;99.90
20915;DHT22;10617;52.032;5.298;2022-09-09T03:13:31;15.60;99.90
20915;DHT22;10617;52.032;5.298;2022-09-09T03:17:33;15.60;99.90
20915;DHT22;10617;52.032;5.298;2022-09-09T03:21:35;15.60;99.90
20915;DHT22;10617;52.032;5.298;2022-09-09T03:25:37;15.50;99.90
20915;DHT22;10617;52.032;5.298;2022-09-09T03:29:39;15.50;99.90
20915;DHT22;10617;52.032;5.298;2022-09-09T03:33:41;15.50;99.90
20915;DHT22;10617;52.032;5.298;2022-09-09T03:37:43;15.50;99.90
20915;DHT22;10617;52.032;5.298;2022-09-09T03:41:45;15.50;99.90
20915;DHT22;10617;52.032;5.298;2022-09-09T03:45:49;15.50;99.90
20915;DHT22;10617;52.032;5.298;2022-09-09T03:49:51;15.40;99.90
20915;DHT22;10617;52.032;5.298;2022-09-09T03:53:52;15.40;99.90
20915;DHT22;10617;52.032;5.298;2022-09-09T03:57:56;15.40;99.90
20915;DHT22;10617;52.032;5.298;2022-09-09T04:01:58;15.40;99.90
20915;DHT22;10617;52.032;5.298;2022-09-09T04:06:01;15.30;99.90
20915;DHT22;10617;52.032;5.298;2022-09-09T04:10:04;15.30;99.90
20915;DHT22;10617;52.032;5.298;2022-09-09T04:14:06;15.30;99.90
20915;DHT22;10617;52.032;5.298;2022-09-09T04:18:07;15.40;99.90
20915;DHT22;10617;52.032;5.298;2022-09-09T04:22:09;15.30;99.90
20915;DHT22;10617;52.032;5.298;2022-09-09T04:26:11;15.30;99.90
20915;DHT22;10617;52.032;5.298;2022-09-09T04:30:12;15.30;99.90
20915;DHT22;10617;52.032;5.298;2022-09-09T04:34:14;15.30;99.90
20915;DHT22;10617;52.032;5.298;2022-09-09T04:38:16;15.30;99.90
20915;DHT22;10617;52.032;5.298;2022-09-09T04:42:18;15.30;99.90
20915;DHT22;10617;52.032;5.298;2022-09-09T04:46:20;15.30;99.90
20915;DHT22;10617;52.032;5.298;2022-09-09T04:50:24;15.30;99.90
20915;DHT22;10617;52.032;5.298;2022-09-09T04:54:27;15.30;99.90
20915;DHT22;10617;52.032;5.298;2022-09-09T04:58:29;15.30;99.90
20915;DHT22;10617;52.032;5.298;2022-09-09T05:02:31;15.30;99.90
20915;DHT22;10617;52.032;5.298;2022-09-09T05:06:33;15.20;99.90
20915;DHT22;10617;52.032;5.298;2022-09-09T05:10:37;15.20;99.90
20915;DHT22;10617;52.032;5.298;2022-09-09T05:14:39;15.30;99.90
20915;DHT22;10617;52.032;5.298;2022-09-09T05:18:41;15.30;99.90
20915;DHT22;10617;52.032;5.298;2022-09-09T05:22:44;15.30;99.90
20915;DHT22;10617;52.032;5.298;2022-09-09T05:26:46;15.20;99.90
20915;DHT22;10617;52.032;5.298;2022-09-09T05:30:54;15.30;99.90
20915;DHT22;10617;52.032;5.298;2022-09-09T05:34:56;15.30;99.90
20915;DHT22;10617;52.032;5.298;2022-09-09T05:38:58;15.30;99.90
20915;DHT22;10617;52.032;5.298;2022-09-09T05:43:00;15.30;99.90
20915;DHT22;10617;52.032;5.298;2022-09-09T05:47:01;15.30;99.90
20915;DHT22;10617;52.032;5.298;2022-09-09T05:51:04;15.30;99.90
20915;DHT22;10617;52.032;5.298;2022-09-09T05:55:06;15.30;99.90
20915;DHT22;10617;52.032;5.298;2022-09-09T05:59:08;15.40;99.90
20915;DHT22;10617;52.032;5.298;2022-09-09T06:03:11;15.50;99.90
20915;DHT22;10617;52.032;5.298;2022-09-09T06:07:13;15.50;99.90
20915;DHT22;10617;52.032;5.298;2022-09-09T06:11:25;15.60;99.90
20915;DHT22;10617;52.032;5.298;2022-09-09T06:15:27;15.60;99.90
20915;DHT22;10617;52.032;5.298;2022-09-09T06:19:32;15.60;99.90
20915;DHT22;10617;52.032;5.298;2022-09-09T06:23:33;15.70;99.90
20915;DHT22;10617;52.032;5.298;2022-09-09T06:27:38;15.80;99.90
20915;DHT22;10617;52.032;5.298;2022-09-09T06:31:39;15.80;99.90
20915;DHT22;10617;52.032;5.298;2022-09-09T06:35:42;15.90;99.90
20915;DHT22;10617;52.032;5.298;2022-09-09T06:39:53;15.90;99.90
20915;DHT22;10617;52.032;5.298;2022-09-09T06:43:56;15.90;99.90
20915;DHT22;10617;52.032;5.298;2022-09-09T06:47:57;15.90;99.90
20915;DHT22;10617;52.032;5.298;2022-09-09T06:51:59;16.00;99.90
20915;DHT22;10617;52.032;5.298;2022-09-09T07:00:16;16.10;99.90
20915;DHT22;10617;52.032;5.298;2022-09-09T07:04:18;16.20;99.90
20915;DHT22;10617;52.032;5.298;2022-09-09T07:08:20;16.30;99.90
20915;DHT22;10617;52.032;5.298;2022-09-09T07:12:22;16.30;99.90
20915;DHT22;10617;52.032;5.298;2022-09-09T07:16:23;16.20;99.90
20915;DHT22;10617;52.032;5.298;2022-09-09T07:20:26;16.20;99.90
20915;DHT22;10617;52.032;5.298;2022-09-09T07:24:27;16.20;99.90
20915;DHT22;10617;52.032;5.298;2022-09-09T07:28:31;16.20;99.90
20915;DHT22;10617;52.032;5.298;2022-09-09T07:32:33;16.30;99.90
20915;DHT22;10617;52.032;5.298;2022-09-09T07:36:35;16.40;99.90
20915;DHT22;10617;52.032;5.298;2022-09-09T07:40:37;16.50;99.90
20915;DHT22;10617;52.032;5.298;2022-09-09T07:44:39;16.60;99.90
20915;DHT22;10617;52.032;5.298;2022-09-09T07:48:45;16.70;99.90
20915;DHT22;10617;52.032;5.298;2022-09-09T07:52:47;16.70;99.90
20915;DHT22;10617;52.032;5.298;2022-09-09T07:56:49;16.70;99.90
20915;DHT22;10617;52.032;5.298;2022-09-09T08:00:51;16.70;99.90
20915;DHT22;10617;52.032;5.298;2022-09-09T08:04:52;16.80;99.90
20915;DHT22;10617;52.032;5.298;2022-09-09T08:08:54;16.80;99.90
20915;DHT22;10617;52.032;5.298;2022-09-09T08:12:56;16.80;99.90
20915;DHT22;10617;52.032;5.298;2022-09-09T08:17:17;16.80;99.90
20915;DHT22;10617;52.032;5.298;2022-09-09T08:21:21;16.70;99.90
20915;DHT22;10617;52.032;5.298;2022-09-09T08:25:23;16.80;99.90
20915;DHT22;10617;52.032;5.298;2022-09-09T08:29:24;16.70;99.90
20915;DHT22;10617;52.032;5.298;2022-09-09T08:33:26;16.70;99.90
20915;DHT22;10617;52.032;5.298;2022-09-09T08:37:27;16.70;99.90
20915;DHT22;10617;52.032;5.298;2022-09-09T08:45:49;16.80;99.90
20915;DHT22;10617;52.032;5.298;2022-09-09T08:54:02;16.80;99.90
20915;DHT22;10617;52.032;5.298;2022-09-09T08:58:18;16.80;99.90
20915;DHT22;10617;52.032;5.298;2022-09-09T09:10:47;16.90;99.90
20915;DHT22;10617;52.032;5.298;2022-09-09T09:14:50;16.90;99.90
20915;DHT22;10617;52.032;5.298;2022-09-09T09:18:52;16.90;99.90
20915;DHT22;10617;52.032;5.298;2022-09-09T09:22:53;16.90;99.90
20915;DHT22;10617;52.032;5.298;2022-09-09T09:26:56;17.00;99.90
20915;DHT22;10617;52.032;5.298;2022-09-09T09:30:59;17.00;99.90
20915;DHT22;10617;52.032;5.298;2022-09-09T09:35:06;17.00;99.90
20915;DHT22;10617;52.032;5.298;2022-09-09T09:39:21;17.00;99.90
20915;DHT22;10617;52.032;5.298;2022-09-09T09:43:52;17.10;99.90
20915;DHT22;10617;52.032;5.298;2022-09-09T09:48:12;17.10;99.90
20915;DHT22;10617;52.032;5.298;2022-09-09T09:52:14;17.10;99.90
20915;DHT22;10617;52.032;5.298;2022-09-09T09:56:26;17.10;99.90
20915;DHT22;10617;52.032;5.298;2022-09-09T10:00:28;17.20;99.90
20915;DHT22;10617;52.032;5.298;2022-09-09T10:04:30;17.20;99.90
20915;DHT22;10617;52.032;5.298;2022-09-09T10:08:34;17.20;99.90
20915;DHT22;10617;52.032;5.298;2022-09-09T10:21:07;17.20;99.90
20915;DHT22;10617;52.032;5.298;2022-09-09T10:29:29;17.10;99.90
20915;DHT22;10617;52.032;5.298;2022-09-09T10:33:37;17.10;99.90
20915;DHT22;10617;52.032;5.298;2022-09-09T10:37:48;17.10;99.90
20915;DHT22;10617;52.032;5.298;2022-09-09T10:42:06;17.10;99.90
20915;DHT22;10617;52.032;5.298;2022-09-09T10:46:21;17.00;99.90
20915;DHT22;10617;52.032;5.298;2022-09-09T10:55:11;17.20;99.90
20915;DHT22;10617;52.032;5.298;2022-09-09T10:59:16;17.30;99.90
20915;DHT22;10617;52.032;5.298;2022-09-09T11:03:20;17.50;99.90
20915;DHT22;10617;52.032;5.298;2022-09-09T11:07:33;17.50;99.90
20915;DHT22;10617;52.032;5.298;2022-09-09T11:11:38;17.50;99.90
20915;DHT22;10617;52.032;5.298;2022-09-09T11:15:44;17.50;99.90
20915;DHT22;10617;52.032;5.298;2022-09-09T11:19:47;17.50;99.90
20915;DHT22;10617;52.032;5.298;2022-09-09T11:23:50;17.50;99.90
20915;DHT22;10617;52.032;5.298;2022-09-09T11:40:58;17.60;99.90
20915;DHT22;10617;52.032;5.298;2022-09-09T11:45:20;17.60;99.90
20915;DHT22;10617;52.032;5.298;2022-09-09T11:49:40;17.50;99.90
20915;DHT22;10617;52.032;5.298;2022-09-09T11:53:56;17.50;99.90
20915;DHT22;10617;52.032;5.298;2022-09-09T11:58:00;17.60;99.90
20915;DHT22;10617;52.032;5.298;2022-09-09T12:02:03;17.60;99.90
20915;DHT22;10617;52.032;5.298;2022-09-09T12:06:29;17.70;99.90
20915;DHT22;10617;52.032;5.298;2022-09-09T12:10:33;17.60;99.90
20915;DHT22;10617;52.032;5.298;2022-09-09T12:14:37;17.60;99.90
20915;DHT22;10617;52.032;5.298;2022-09-09T12:18:39;17.50;99.90
20915;DHT22;10617;52.032;5.298;2022-09-09T12:22:50;17.50;99.90
20915;DHT22;10617;52.032;5.298;2022-09-09T12:27:02;17.50;99.90
20915;DHT22;10617;52.032;5.298;2022-09-09T12:35:23;17.70;99.90
20915;DHT22;10617;52.032;5.298;2022-09-09T12:39:34;17.70;99.90
20915;DHT22;10617;52.032;5.298;2022-09-09T12:43:37;17.70;99.90
20915;DHT22;10617;52.032;5.298;2022-09-09T12:47:40;17.70;99.90
20915;DHT22;10617;52.032;5.298;2022-09-09T12:51:44;17.70;99.90
20915;DHT22;10617;52.032;5.298;2022-09-09T12:55:54;17.70;99.90
20915;DHT22;10617;52.032;5.298;2022-09-09T13:00:04;17.80;99.90
20915;DHT22;10617;52.032;5.298;2022-09-09T13:04:19;17.80;99.90
20915;DHT22;10617;52.032;5.298;2022-09-09T13:08:21;17.80;99.90
20915;DHT22;10617;52.032;5.298;2022-09-09T13:12:22;17.80;99.90
20915;DHT22;10617;52.032;5.298;2022-09-09T13:16:31;17.80;99.90
20915;DHT22;10617;52.032;5.298;2022-09-09T13:20:35;17.80;99.90
20915;DHT22;10617;52.032;5.298;2022-09-09T13:24:36;17.80;99.90
20915;DHT22;10617;52.032;5.298;2022-09-09T13:28:38;17.80;99.90
20915;DHT22;10617;52.032;5.298;2022-09-09T13:32:40;17.80;99.90
20915;DHT22;10617;52.032;5.298;2022-09-09T13:36:41;17.90;99.90
20915;DHT22;10617;52.032;5.298;2022-09-09T13:44:58;18.00;99.90
20915;DHT22;10617;52.032;5.298;2022-09-09T13:53:03;18.20;99.90
20915;DHT22;10617;52.032;5.298;2022-09-09T13:57:05;18.20;99.90
20915;DHT22;10617;52.032;5.298;2022-09-09T14:01:07;18.20;99.90
20915;DHT22;10617;52.032;5.298;2022-09-09T14:05:09;18.30;99.90
20915;DHT22;10617;52.032;5.298;2022-09-09T14:09:12;18.30;99.90
20915;DHT22;10617;52.032;5.298;2022-09-09T14:13:14;18.30;99.90
20915;DHT22;10617;52.032;5.298;2022-09-09T14:17:17;18.30;99.90
20915;DHT22;10617;52.032;5.298;2022-09-09T14:21:18;18.30;99.90
20915;DHT22;10617;52.032;5.298;2022-09-09T14:25:20;18.30;99.90
20915;DHT22;10617;52.032;5.298;2022-09-09T14:29:22;18.30;99.90
20915;DHT22;10617;52.032;5.298;2022-09-09T14:33:23;18.30;99.90
20915;DHT22;10617;52.032;5.298;2022-09-09T14:37:26;18.30;99.90
20915;DHT22;10617;52.032;5.298;2022-09-09T14:41:28;18.30;99.90
20915;DHT22;10617;52.032;5.298;2022-09-09T14:45:31;18.30;99.90
20915;DHT22;10617;52.032;5.298;2022-09-09T14:49:33;18.40;99.90
20915;DHT22;10617;52.032;5.298;2022-09-09T14:53:35;18.40;99.90
20915;DHT22;10617;52.032;5.298;2022-09-09T14:57:37;18.50;99.90
20915;DHT22;10617;52.032;5.298;2022-09-09T15:01:40;18.60;99.90
20915;DHT22;10617;52.032;5.298;2022-09-09T15:05:42;18.70;99.90
20915;DHT22;10617;52.032;5.298;2022-09-09T15:09:44;18.80;99.90
20915;DHT22;10617;52.032;5.298;2022-09-09T15:13:45;18.70;99.90
20915;DHT22;10617;52.032;5.298;2022-09-09T15:17:48;18.70;99.90
20915;DHT22;10617;52.032;5.298;2022-09-09T15:21:50;18.70;99.90
20915;DHT22;10617;52.032;5.298;2022-09-09T15:25:54;18.80;99.90
20915;DHT22;10617;52.032;5.298;2022-09-09T15:29:57;18.70;99.90
20915;DHT22;10617;52.032;5.298;2022-09-09T15:34:00;18.60;99.90
20915;DHT22;10617;52.032;5.298;2022-09-09T15:38:02;18.60;99.90
20915;DHT22;10617;52.032;5.298;2022-09-09T15:42:06;18.50;99.90
20915;DHT22;10617;52.032;5.298;2022-09-09T15:50:25;18.60;99.90
20915;DHT22;10617;52.032;5.298;2022-09-09T15:54:27;18.60;99.90
20915;DHT22;10617;52.032;5.298;2022-09-09T15:58:34;18.60;99.90
20915;DHT22;10617;52.032;5.298;2022-09-09T16:02:37;18.80;99.90
20915;DHT22;10617;52.032;5.298;2022-09-09T16:06:38;18.80;99.90
20915;DHT22;10617;52.032;5.298;2022-09-09T16:10:40;19.00;99.90
20915;DHT22;10617;52.032;5.298;2022-09-09T16:14:42;19.00;99.90
20915;DHT22;10617;52.032;5.298;2022-09-09T16:18:44;19.00;99.90
20915;DHT22;10617;52.032;5.298;2022-09-09T16:22:46;19.10;99.90
20915;DHT22;10617;52.032;5.298;2022-09-09T16:26:49;19.20;99.90
20915;DHT22;10617;52.032;5.298;2022-09-09T16:30:50;19.20;99.90
20915;DHT22;10617;52.032;5.298;2022-09-09T16:34:52;19.10;99.90
20915;DHT22;10617;52.032;5.298;2022-09-09T16:38:55;19.00;99.90
20915;DHT22;10617;52.032;5.298;2022-09-09T16:42:58;18.90;99.90
20915;DHT22;10617;52.032;5.298;2022-09-09T16:47:00;18.80;99.90
20915;DHT22;10617;52.032;5.298;2022-09-09T16:51:03;18.90;99.90
20915;DHT22;10617;52.032;5.298;2022-09-09T16:55:06;19.10;99.90
20915;DHT22;10617;52.032;5.298;2022-09-09T16:59:09;19.50;99.90
20915;DHT22;10617;52.032;5.298;2022-09-09T17:03:14;19.50;99.90
20915;DHT22;10617;52.032;5.298;2022-09-09T17:07:16;19.40;99.90
20915;DHT22;10617;52.032;5.298;2022-09-09T17:11:18;19.40;99.90
20915;DHT22;10617;52.032;5.298;2022-09-09T17:15:20;19.40;99.90
20915;DHT22;10617;52.032;5.298;2022-09-09T17:19:22;19.30;99.90
20915;DHT22;10617;52.032;5.298;2022-09-09T17:23:24;19.10;99.90
20915;DHT22;10617;52.032;5.298;2022-09-09T17:27:25;19.00;99.90
20915;DHT22;10617;52.032;5.298;2022-09-09T17:31:27;18.90;99.90
20915;DHT22;10617;52.032;5.298;2022-09-09T17:35:30;18.80;99.90
20915;DHT22;10617;52.032;5.298;2022-09-09T17:39:32;18.70;99.90
20915;DHT22;10617;52.032;5.298;2022-09-09T17:43:34;18.60;99.90
20915;DHT22;10617;52.032;5.298;2022-09-09T17:47:37;18.50;99.90
20915;DHT22;10617;52.032;5.298;2022-09-09T17:51:38;18.50;99.90
20915;DHT22;10617;52.032;5.298;2022-09-09T17:55:42;18.40;99.90
20915;DHT22;10617;52.032;5.298;2022-09-09T17:59:44;18.40;99.90
20915;DHT22;10617;52.032;5.298;2022-09-09T18:03:46;18.30;99.90
20915;DHT22;10617;52.032;5.298;2022-09-09T18:07:49;18.30;99.90
20915;DHT22;10617;52.032;5.298;2022-09-09T18:11:51;18.30;99.90
20915;DHT22;10617;52.032;5.298;2022-09-09T18:15:54;18.30;99.90
20915;DHT22;10617;52.032;5.298;2022-09-09T18:19:56;18.30;99.90
20915;DHT22;10617;52.032;5.298;2022-09-09T18:23:58;18.30;99.90
20915;DHT22;10617;52.032;5.298;2022-09-09T18:28:00;18.30;99.90
20915;DHT22;10617;52.032;5.298;2022-09-09T18:32:01;18.30;99.90
20915;DHT22;10617;52.032;5.298;2022-09-09T18:36:04;18.20;99.90
20915;DHT22;10617;52.032;5.298;2022-09-09T18:40:06;18.20;99.90
20915;DHT22;10617;52.032;5.298;2022-09-09T18:44:13;18.20;99.90
20915;DHT22;10617;52.032;5.298;2022-09-09T18:48:16;18.20;99.90
20915;DHT22;10617;52.032;5.298;2022-09-09T18:52:18;18.20;99.90
20915;DHT22;10617;52.032;5.298;2022-09-09T18:56:19;18.10;99.90
20915;DHT22;10617;52.032;5.298;2022-09-09T19:00:21;18.10;99.90
20915;DHT22;10617;52.032;5.298;2022-09-09T19:04:23;18.10;99.90
20915;DHT22;10617;52.032;5.298;2022-09-09T19:08:25;18.10;99.90
20915;DHT22;10617;52.032;5.298;2022-09-09T19:12:27;18.00;99.90
20915;DHT22;10617;52.032;5.298;2022-09-09T19:16:30;18.00;99.90
20915;DHT22;10617;52.032;5.298;2022-09-09T19:20:32;17.90;99.90
20915;DHT22;10617;52.032;5.298;2022-09-09T19:24:33;17.90;99.90
20915;DHT22;10617;52.032;5.298;2022-09-09T19:28:35;17.90;99.90
20915;DHT22;10617;52.032;5.298;2022-09-09T19:32:38;17.80;99.90
20915;DHT22;10617;52.032;5.298;2022-09-09T19:36:55;17.80;99.90
20915;DHT22;10617;52.032;5.298;2022-09-09T19:41:01;17.70;99.90
20915;DHT22;10617;52.032;5.298;2022-09-09T19:45:03;17.70;99.90
20915;DHT22;10617;52.032;5.298;2022-09-09T19:49:07;17.60;99.90
20915;DHT22;10617;52.032;5.298;2022-09-09T19:53:09;17.60;99.90
20915;DHT22;10617;52.032;5.298;2022-09-09T19:57:10;17.60;99.90
20915;DHT22;10617;52.032;5.298;2022-09-09T20:05:14;17.60;99.90
20915;DHT22;10617;52.032;5.298;2022-09-09T20:09:16;17.60;99.90
20915;DHT22;10617;52.032;5.298;2022-09-09T20:13:18;17.50;99.90
20915;DHT22;10617;52.032;5.298;2022-09-09T20:17:19;17.50;99.90
20915;DHT22;10617;52.032;5.298;2022-09-09T20:21:22;17.50;99.90
20915;DHT22;10617;52.032;5.298;2022-09-09T20:25:24;17.50;99.90
20915;DHT22;10617;52.032;5.298;2022-09-09T20:29:26;17.50;99.90
20915;DHT22;10617;52.032;5.298;2022-09-09T20:33:27;17.50;99.90
20915;DHT22;10617;52.032;5.298;2022-09-09T20:37:29;17.40;99.90
20915;DHT22;10617;52.032;5.298;2022-09-09T20:41:32;17.40;99.90
20915;DHT22;10617;52.032;5.298;2022-09-09T20:45:34;17.40;99.90
20915;DHT22;10617;52.032;5.298;2022-09-09T20:49:36;17.40;99.90
20915;DHT22;10617;52.032;5.298;2022-09-09T20:53:37;17.40;99.90
20915;DHT22;10617;52.032;5.298;2022-09-09T20:57:39;17.30;99.90
20915;DHT22;10617;52.032;5.298;2022-09-09T21:01:41;17.30;99.90
20915;DHT22;10617;52.032;5.298;2022-09-09T21:05:44;17.30;99.90
20915;DHT22;10617;52.032;5.298;2022-09-09T21:09:45;17.30;99.90
20915;DHT22;10617;52.032;5.298;2022-09-09T21:13:47;17.30;99.90
20915;DHT22;10617;52.032;5.298;2022-09-09T21:17:48;17.30;99.90
20915;DHT22;10617;52.032;5.298;2022-09-09T21:21:50;17.30;99.90
20915;DHT22;10617;52.032;5.298;2022-09-09T21:25:52;17.20;99.90
20915;DHT22;10617;52.032;5.298;2022-09-09T21:29:54;17.20;99.90
20915;DHT22;10617;52.032;5.298;2022-09-09T21:33:56;17.20;99.90
20915;DHT22;10617;52.032;5.298;2022-09-09T21:37:58;17.20;99.90
20915;DHT22;10617;52.032;5.298;2022-09-09T21:42:00;17.20;99.90
20915;DHT22;10617;52.032;5.298;2022-09-09T21:46:05;17.10;99.90
20915;DHT22;10617;52.032;5.298;2022-09-09T21:50:08;17.10;99.90
20915;DHT22;10617;52.032;5.298;2022-09-09T21:54:09;17.10;99.90
20915;DHT22;10617;52.032;5.298;2022-09-09T21:58:11;17.20;99.90
20915;DHT22;10617;52.032;5.298;2022-09-09T22:02:13;17.10;99.90
20915;DHT22;10617;52.032;5.298;2022-09-09T22:06:15;17.10;99.90
20915;DHT22;10617;52.032;5.298;2022-09-09T22:10:18;17.10;99.90
20915;DHT22;10617;52.032;5.298;2022-09-09T22:14:21;17.10;99.90
20915;DHT22;10617;52.032;5.298;2022-09-09T22:18:22;17.10;99.90
20915;DHT22;10617;52.032;5.298;2022-09-09T22:22:24;17.00;99.90
20915;DHT22;10617;52.032;5.298;2022-09-09T22:26:27;17.00;99.90
20915;DHT22;10617;52.032;5.298;2022-09-09T22:30:29;17.00;99.90
20915;DHT22;10617;52.032;5.298;2022-09-09T22:34:30;17.00;99.90
20915;DHT22;10617;52.032;5.298;2022-09-09T22:38:32;17.00;99.90
20915;DHT22;10617;52.032;5.298;2022-09-09T22:42:35;17.00;99.90
20915;DHT22;10617;52.032;5.298;2022-09-09T22:46:37;16.90;99.90
20915;DHT22;10617;52.032;5.298;2022-09-09T22:50:40;16.90;99.90
20915;DHT22;10617;52.032;5.298;2022-09-09T22:54:43;16.90;99.90
20915;DHT22;10617;52.032;5.298;2022-09-09T22:58:46;16.90;99.90
20915;DHT22;10617;52.032;5.298;2022-09-09T23:02:52;16.90;99.90
20915;DHT22;10617;52.032;5.298;2022-09-09T23:06:54;16.90;99.90
20915;DHT22;10617;52.032;5.298;2022-09-09T23:10:55;16.90;99.90
20915;DHT22;10617;52.032;5.298;2022-09-09T23:14:57;16.90;99.90
20915;DHT22;10617;52.032;5.298;2022-09-09T23:18:59;16.80;99.90
20915;DHT22;10617;52.032;5.298;2022-09-09T23:23:01;16.80;99.90
20915;DHT22;10617;52.032;5.298;2022-09-09T23:27:03;16.80;99.90
20915;DHT22;10617;52.032;5.298;2022-09-09T23:31:09;16.80;99.90
20915;DHT22;10617;52.032;5.298;2022-09-09T23:35:10;16.80;99.90
20915;DHT22;10617;52.032;5.298;2022-09-09T23:39:12;16.80;99.90
20915;DHT22;10617;52.032;5.298;2022-09-09T23:43:14;16.80;99.90
20915;DHT22;10617;52.032;5.298;2022-09-09T23:47:15;16.80;99.90
20915;DHT22;10617;52.032;5.298;2022-09-09T23:51:18;16.80;99.90
20915;DHT22;10617;52.032;5.298;2022-09-09T23:55:20;16.80;99.90
20915;DHT22;10617;52.032;5.298;2022-09-09T23:59:24;16.80;99.90
